createdAt,value
2018-09-01T00:01:13.941Z,30.70
2018-09-01T00:03:42.149Z,28.97
2018-09-01T00:06:10.401Z,31.20
2018-09-01T00:08:38.608Z,29.87
2018-09-01T00:11:08.922Z,31.33
2018-09-01T00:13:37.141Z,30.97
2018-09-01T00:16:05.327Z,29.77
2018-09-01T00:18:33.533Z,31.00
2018-09-01T00:21:01.914Z,30.30
2018-09-01T00:23:30.121Z,30.43
2018-09-01T00:25:58.368Z,31.93
2018-09-01T00:28:26.573Z,31.20
2018-09-01T00:30:54.753Z,29.40
2018-09-01T00:33:22.977Z,31.47
2018-09-01T00:35:51.452Z,33.60
2018-09-01T00:38:25.173Z,31.67
2018-09-01T00:40:53.390Z,29.87
2018-09-01T00:43:21.597Z,29.60
2018-09-01T00:45:49.860Z,31.60
2018-09-01T00:48:18.090Z,28.60
2018-09-01T00:50:46.296Z,30.17
2018-09-01T00:53:14.460Z,28.70
2018-09-01T00:55:42.664Z,29.07
2018-09-01T00:58:10.837Z,27.63
2018-09-01T01:00:39.035Z,29.13
2018-09-01T01:03:07.198Z,31.17
2018-09-01T01:05:35.407Z,30.67
2018-09-01T01:08:03.585Z,31.30
2018-09-01T01:10:31.794Z,29.97
2018-09-01T01:12:59.977Z,31.13
2018-09-01T01:15:28.173Z,28.67
2018-09-01T01:17:56.329Z,30.33
2018-09-01T01:20:24.577Z,31.63
2018-09-01T01:22:52.771Z,33.60
2018-09-01T01:25:21.069Z,32.60
2018-09-01T01:27:49.273Z,33.00
2018-09-01T01:30:17.490Z,30.80
2018-09-01T01:32:45.674Z,30.23
2018-09-01T01:35:13.924Z,30.83
2018-09-01T01:37:42.101Z,31.77
2018-09-01T01:40:10.315Z,28.63
2018-09-01T01:42:38.532Z,28.60
2018-09-01T01:45:06.969Z,27.87
2018-09-01T01:47:39.560Z,27.57
2018-09-01T01:50:09.313Z,26.63
2018-09-01T01:52:37.507Z,22.63
2018-09-01T01:55:05.889Z,22.00
2018-09-01T01:57:38.505Z,23.00
2018-09-01T02:00:07.365Z,23.07
2018-09-01T02:02:35.978Z,23.73
2018-09-01T02:05:04.392Z,22.73
2018-09-01T02:07:32.594Z,23.13
2018-09-01T02:10:00.757Z,22.63
2018-09-01T02:12:28.976Z,22.60
2018-09-01T02:14:57.186Z,22.03
2018-09-01T02:17:25.497Z,22.27
2018-09-01T02:19:53.669Z,25.33
2018-09-01T02:22:21.872Z,20.27
2018-09-01T02:24:50.061Z,24.67
2018-09-01T02:27:18.283Z,21.77
2018-09-01T02:29:46.455Z,23.00
2018-09-01T02:32:14.650Z,22.13
2018-09-01T02:34:42.838Z,23.13
2018-09-01T02:37:11.111Z,23.07
2018-09-01T02:39:39.296Z,22.37
2018-09-01T02:42:07.522Z,21.90
2018-09-01T02:44:35.705Z,23.83
2018-09-01T02:47:04.379Z,23.23
2018-09-01T02:49:32.668Z,22.43
2018-09-01T02:52:00.881Z,22.77
2018-09-01T02:54:29.065Z,21.10
2018-09-01T02:56:57.284Z,23.43
2018-09-01T02:59:25.448Z,24.47
2018-09-01T03:01:53.669Z,23.23
2018-09-01T03:04:21.889Z,25.20
2018-09-01T03:06:53.294Z,25.13
2018-09-01T03:09:21.965Z,26.27
2018-09-01T03:11:50.933Z,23.87
2018-09-01T03:14:19.304Z,24.80
2018-09-01T03:16:47.621Z,25.93
2018-09-01T03:19:16.033Z,27.57
2018-09-01T03:21:44.237Z,24.23
2018-09-01T03:24:12.450Z,27.40
2018-09-01T03:26:40.654Z,28.10
2018-09-01T03:29:08.875Z,26.20
2018-09-01T03:31:37.057Z,25.67
2018-09-01T03:34:05.500Z,27.50
2018-09-01T03:36:33.760Z,29.67
2018-09-01T03:39:02.214Z,25.57
2018-09-01T03:41:30.485Z,27.57
2018-09-01T03:43:58.693Z,26.87
2018-09-01T03:46:26.889Z,27.43
2018-09-01T03:48:57.720Z,27.03
2018-09-01T03:51:26.265Z,25.80
2018-09-01T03:53:54.457Z,27.50
2018-09-01T03:56:22.637Z,26.00
2018-09-01T03:58:50.919Z,24.10
2018-09-01T04:01:19.109Z,26.03
2018-09-01T04:03:47.311Z,26.10
2018-09-01T04:06:15.489Z,26.47
2018-09-01T04:08:43.739Z,23.90
2018-09-01T04:11:11.927Z,25.73
2018-09-01T04:13:40.162Z,26.47
2018-09-01T04:16:08.341Z,26.97
2018-09-01T04:18:37.001Z,24.70
2018-09-01T04:21:05.501Z,25.67
2018-09-01T04:23:33.862Z,25.93
2018-09-01T04:26:02.045Z,25.57
2018-09-01T04:28:30.269Z,22.27
2018-09-01T04:30:58.465Z,24.57
2018-09-01T04:33:26.681Z,23.73
2018-09-01T04:35:54.900Z,24.70
2018-09-01T04:38:23.081Z,23.80
2018-09-01T04:40:51.405Z,24.77
2018-09-01T04:43:19.729Z,26.00
2018-09-01T04:45:47.955Z,23.80
2018-09-01T04:48:16.129Z,25.73
2018-09-01T04:50:44.360Z,25.67
2018-09-01T04:53:12.550Z,26.37
2018-09-01T04:55:40.787Z,25.60
2018-09-01T04:58:08.968Z,26.83
2018-09-01T05:00:37.214Z,24.70
2018-09-01T05:03:05.414Z,24.30
2018-09-01T05:05:33.620Z,25.90
2018-09-01T05:08:01.922Z,25.77
2018-09-01T05:10:30.203Z,25.27
2018-09-01T05:12:58.424Z,24.63
2018-09-01T05:15:26.629Z,25.80
2018-09-01T05:17:54.794Z,24.33
2018-09-01T05:20:23.009Z,25.60
2018-09-01T05:22:51.189Z,25.50
2018-09-01T05:25:19.496Z,24.17
2018-09-01T05:27:47.665Z,25.13
2018-09-01T05:30:15.897Z,24.40
2018-09-01T05:32:44.056Z,25.37
2018-09-01T05:35:12.272Z,23.93
2018-09-01T05:37:40.460Z,24.30
2018-09-01T05:40:09.035Z,26.10
2018-09-01T05:42:37.260Z,24.10
2018-09-01T05:45:05.606Z,24.40
2018-09-01T05:47:33.785Z,23.33
2018-09-01T05:50:02.053Z,23.27
2018-09-01T05:52:30.257Z,22.60
2018-09-01T05:54:58.493Z,22.67
2018-09-01T05:57:26.719Z,21.57
2018-09-01T05:59:54.916Z,21.60
2018-09-01T06:02:23.240Z,20.70
2018-09-01T06:04:51.449Z,20.17
2018-09-01T06:07:19.784Z,19.77
2018-09-01T06:09:47.962Z,20.83
2018-09-01T06:12:16.187Z,21.97
2018-09-01T06:14:44.413Z,19.13
2018-09-01T06:17:12.653Z,18.47
2018-09-01T06:19:41.165Z,19.73
2018-09-01T06:22:09.390Z,18.00
2018-09-01T06:24:37.592Z,18.27
2018-09-01T06:27:11.123Z,17.67
2018-09-01T06:29:39.407Z,16.73
2018-09-01T06:32:08.288Z,16.63
2018-09-01T06:34:36.446Z,15.57
2018-09-01T06:37:04.951Z,16.70
2018-09-01T06:39:33.138Z,14.93
2018-09-01T06:42:01.444Z,14.80
2018-09-01T06:44:29.724Z,15.00
2018-09-01T06:46:58.003Z,13.17
2018-09-01T06:49:26.194Z,13.50
2018-09-01T06:51:54.460Z,14.27
2018-09-01T06:54:22.752Z,12.57
2018-09-01T06:56:51.215Z,14.07
2018-09-01T06:59:19.425Z,12.00
2018-09-01T07:01:47.762Z,12.13
2018-09-01T07:04:15.948Z,12.13
2018-09-01T07:06:44.173Z,10.37
2018-09-01T07:09:12.385Z,12.07
2018-09-01T07:11:40.610Z,12.50
2018-09-01T07:14:08.830Z,10.70
2018-09-01T07:16:37.053Z,10.60
2018-09-01T07:19:05.356Z,9.17
2018-09-01T07:21:33.629Z,7.40
2018-09-01T07:24:01.872Z,7.90
2018-09-01T07:26:30.070Z,9.13
2018-09-01T07:28:58.300Z,8.90
2018-09-01T07:31:26.787Z,8.63
2018-09-01T07:33:55.565Z,9.53
2018-09-01T07:36:24.056Z,8.50
2018-09-01T07:38:52.334Z,9.80
2018-09-01T07:41:20.509Z,7.63
2018-09-01T07:43:48.789Z,8.70
2018-09-01T07:46:17.523Z,8.87
2018-09-01T07:48:45.746Z,8.63
2018-09-01T07:51:13.945Z,9.07
2018-09-01T07:53:42.173Z,8.87
2018-09-01T07:56:11.214Z,9.10
2018-09-01T07:58:39.445Z,8.77
2018-09-01T08:01:07.617Z,9.40
2018-09-01T08:03:35.835Z,9.20
2018-09-01T08:06:04.194Z,9.43
2018-09-01T08:08:32.494Z,9.83
2018-09-01T08:11:00.674Z,10.40
2018-09-01T08:13:28.885Z,9.67
2018-09-01T08:15:57.069Z,10.40
2018-09-01T08:18:25.279Z,9.03
2018-09-01T08:20:53.453Z,10.03
2018-09-01T08:23:21.678Z,11.23
2018-09-01T08:25:50.316Z,10.63
2018-09-01T08:28:18.636Z,10.63
2018-09-01T08:30:46.829Z,10.70
2018-09-01T08:33:15.078Z,10.10
2018-09-01T08:35:43.245Z,9.80
2018-09-01T08:38:11.463Z,10.00
2018-09-01T08:40:39.922Z,10.07
2018-09-01T08:43:08.356Z,11.20
2018-09-01T08:45:36.697Z,9.83
2018-09-01T08:48:06.660Z,11.30
2018-09-01T08:50:34.932Z,11.40
2018-09-01T08:53:03.193Z,10.90
2018-09-01T08:55:31.433Z,9.27
2018-09-01T08:57:59.689Z,9.83
2018-09-01T09:00:27.945Z,10.23
2018-09-01T09:02:56.133Z,10.03
2018-09-01T09:05:24.421Z,11.00
2018-09-01T09:07:52.600Z,11.07
2018-09-01T09:10:20.831Z,12.00
2018-09-01T09:12:49.020Z,10.70
2018-09-01T09:15:17.420Z,12.60
2018-09-01T09:17:45.620Z,11.60
2018-09-01T09:20:13.893Z,11.67
2018-09-01T09:22:42.070Z,11.03
2018-09-01T09:25:10.305Z,11.60
2018-09-01T09:27:38.509Z,10.93
2018-09-01T09:30:06.927Z,11.30
2018-09-01T09:32:35.320Z,12.00
2018-09-01T09:35:03.646Z,12.17
2018-09-01T09:37:31.976Z,14.00
2018-09-01T09:40:00.202Z,14.77
2018-09-01T09:42:28.393Z,13.43
2018-09-01T09:44:56.632Z,13.30
2018-09-01T09:47:24.870Z,13.10
2018-09-01T09:49:53.145Z,12.43
2018-09-01T09:52:21.346Z,13.10
2018-09-01T09:54:49.564Z,12.20
2018-09-01T09:57:17.745Z,12.17
2018-09-01T09:59:46.011Z,12.50
2018-09-01T10:02:14.194Z,13.33
2018-09-01T10:04:42.407Z,12.47
2018-09-01T10:07:10.680Z,13.30
2018-09-01T10:09:38.865Z,13.93
2018-09-01T10:12:07.121Z,14.37
2018-09-01T10:14:35.277Z,14.50
2018-09-01T10:17:03.619Z,12.47
2018-09-01T10:19:31.780Z,13.83
2018-09-01T10:21:59.973Z,13.97
2018-09-01T10:24:28.125Z,13.60
2018-09-01T10:26:56.387Z,13.07
2018-09-01T10:29:24.689Z,13.30
2018-09-01T10:31:52.940Z,13.70
2018-09-01T10:34:21.096Z,15.03
2018-09-01T10:36:49.324Z,15.00
2018-09-01T10:39:17.505Z,14.13
2018-09-01T10:41:45.718Z,15.87
2018-09-01T10:44:13.914Z,14.63
2018-09-01T10:46:42.140Z,13.47
2018-09-01T10:49:10.344Z,12.70
2018-09-01T10:51:38.572Z,13.20
2018-09-01T10:54:06.756Z,13.53
2018-09-01T10:56:34.973Z,13.50
2018-09-01T10:59:03.238Z,11.40
2018-09-01T11:01:31.493Z,12.90
2018-09-01T11:03:59.649Z,12.20
2018-09-01T11:06:28.239Z,12.90
2018-09-01T11:08:56.732Z,13.23
2018-09-01T11:11:25.045Z,12.80
2018-09-01T11:13:53.209Z,12.40
2018-09-01T11:16:21.396Z,12.73
2018-09-01T11:18:49.581Z,12.27
2018-09-01T11:21:17.807Z,12.90
2018-09-01T11:23:45.960Z,11.83
2018-09-01T11:26:14.204Z,10.10
2018-09-01T11:28:42.430Z,11.50
2018-09-01T11:31:10.730Z,11.23
2018-09-01T11:33:39.040Z,11.43
2018-09-01T11:36:07.272Z,9.90
2018-09-01T11:38:35.476Z,10.87
2018-09-01T11:41:03.642Z,10.57
2018-09-01T11:43:32.053Z,10.30
2018-09-01T11:46:00.240Z,9.93
2018-09-01T11:48:28.448Z,10.23
2018-09-01T11:50:56.708Z,10.13
2018-09-01T11:53:25.109Z,10.77
2018-09-01T11:55:53.743Z,9.80
2018-09-01T11:58:22.465Z,8.30
2018-09-01T12:00:51.127Z,8.70
2018-09-01T12:03:19.510Z,8.70
2018-09-01T12:05:47.782Z,9.30
2018-09-01T12:08:16.126Z,8.10
2018-09-01T12:10:44.997Z,9.23
2018-09-01T12:13:13.202Z,8.63
2018-09-01T12:15:41.527Z,7.80
2018-09-01T12:18:10.056Z,8.10
2018-09-01T12:20:38.282Z,8.53
2018-09-01T12:23:06.660Z,7.67
2018-09-01T12:25:34.868Z,8.93
2018-09-01T12:28:03.098Z,7.90
2018-09-01T12:30:31.301Z,7.50
2018-09-01T12:32:59.498Z,8.70
2018-09-01T12:35:27.754Z,8.33
2018-09-01T12:37:55.961Z,8.20
2018-09-01T12:40:24.136Z,8.63
2018-09-01T12:42:52.353Z,8.40
2018-09-01T12:45:20.537Z,7.43
2018-09-01T12:47:48.777Z,8.83
2018-09-01T12:50:17.062Z,7.40
2018-09-01T12:52:45.269Z,7.80
2018-09-01T12:55:13.476Z,8.63
2018-09-01T12:57:41.667Z,8.97
2018-09-01T13:00:09.965Z,8.00
2018-09-01T13:02:38.260Z,8.40
2018-09-01T13:05:06.617Z,9.10
2018-09-01T13:07:34.812Z,8.07
2018-09-01T13:10:03.109Z,8.63
2018-09-01T13:12:31.293Z,9.30
2018-09-01T13:14:59.500Z,9.53
2018-09-01T13:17:27.677Z,9.33
2018-09-01T13:19:55.868Z,10.33
2018-09-01T13:22:24.050Z,8.63
2018-09-01T13:24:52.244Z,7.93
2018-09-01T13:27:21.021Z,9.07
2018-09-01T13:29:49.259Z,9.10
2018-09-01T13:32:17.441Z,8.90
2018-09-01T13:34:45.769Z,10.40
2018-09-01T13:37:13.952Z,10.27
2018-09-01T13:39:42.332Z,10.17
2018-09-01T13:42:10.513Z,10.53
2018-09-01T13:44:38.798Z,10.60
2018-09-01T13:47:07.070Z,12.13
2018-09-01T13:49:35.282Z,11.93
2018-09-01T13:52:03.496Z,11.43
2018-09-01T13:54:31.689Z,11.30
2018-09-01T13:56:59.864Z,11.13
2018-09-01T13:59:28.086Z,11.93
2018-09-01T14:01:56.260Z,13.20
2018-09-01T14:04:24.476Z,12.53
2018-09-01T14:06:52.658Z,14.50
2018-09-01T14:09:20.876Z,14.30
2018-09-01T14:11:49.060Z,13.70
2018-09-01T14:14:17.329Z,13.80
2018-09-01T14:16:45.501Z,14.87
2018-09-01T14:19:13.724Z,15.30
2018-09-01T14:21:41.969Z,15.20
2018-09-01T14:24:10.171Z,14.40
2018-09-01T14:26:38.474Z,13.47
2018-09-01T14:29:07.013Z,13.43
2018-09-01T14:31:35.379Z,15.13
2018-09-01T14:34:03.951Z,13.77
2018-09-01T14:36:32.321Z,14.70
2018-09-01T14:39:00.481Z,14.90
2018-09-01T14:41:28.681Z,16.03
2018-09-01T14:43:56.847Z,16.33
2018-09-01T14:46:25.061Z,15.37
2018-09-01T14:48:53.242Z,15.10
2018-09-01T14:51:21.517Z,14.57
2018-09-01T14:53:49.762Z,15.33
2018-09-01T14:56:18.013Z,13.33
2018-09-01T14:58:46.195Z,13.07
2018-09-01T15:01:14.410Z,14.60
2018-09-01T15:03:42.597Z,13.23
2018-09-01T15:06:10.805Z,13.20
2018-09-01T15:08:38.998Z,12.97
2018-09-01T15:11:07.243Z,13.20
2018-09-01T15:13:35.400Z,13.63
2018-09-01T15:16:03.611Z,13.17
2018-09-01T15:18:31.768Z,13.50
2018-09-01T15:20:59.989Z,12.77
2018-09-01T15:23:28.161Z,13.37
2018-09-01T15:25:56.376Z,13.07
2018-09-01T15:28:24.602Z,11.83
2018-09-01T15:30:52.813Z,11.77
2018-09-01T15:33:20.977Z,11.03
2018-09-01T15:35:49.217Z,10.93
2018-09-01T15:38:17.438Z,12.23
2018-09-01T15:40:45.760Z,11.27
2018-09-01T15:43:14.822Z,11.87
2018-09-01T15:45:43.293Z,11.30
2018-09-01T15:48:11.596Z,9.47
2018-09-01T15:50:40.125Z,9.70
2018-09-01T15:53:08.329Z,9.90
2018-09-01T15:55:36.537Z,11.17
2018-09-01T15:58:04.865Z,9.07
2018-09-01T16:00:33.045Z,8.57
2018-09-01T16:03:01.244Z,9.07
2018-09-01T16:05:29.401Z,10.27
2018-09-01T16:07:57.604Z,9.07
2018-09-01T16:10:25.798Z,9.50
2018-09-01T16:12:54.018Z,9.50
2018-09-01T16:15:22.193Z,9.73
2018-09-01T16:17:50.400Z,8.60
2018-09-01T16:20:18.571Z,8.60
2018-09-01T16:22:46.768Z,10.30
2018-09-01T16:25:14.941Z,8.70
2018-09-01T16:27:43.201Z,9.17
2018-09-01T16:30:11.388Z,7.80
2018-09-01T16:32:39.613Z,9.30
2018-09-01T16:35:08.319Z,8.80
2018-09-01T16:37:36.529Z,8.93
2018-09-01T16:40:05.533Z,9.50
2018-09-01T16:42:33.740Z,8.63
2018-09-01T16:45:01.921Z,9.23
2018-09-01T16:47:30.136Z,8.70
2018-09-01T16:49:58.316Z,9.70
2018-09-01T16:52:26.548Z,9.83
2018-09-01T16:54:54.741Z,9.10
2018-09-01T16:57:23.029Z,9.97
2018-09-01T16:59:51.267Z,9.60
2018-09-01T17:02:19.472Z,8.77
2018-09-01T17:04:47.685Z,9.67
2018-09-01T17:07:15.869Z,8.33
2018-09-01T17:09:44.204Z,8.80
2018-09-01T17:12:12.380Z,8.60
2018-09-01T17:14:40.617Z,8.57
2018-09-01T17:17:08.816Z,8.40
2018-09-01T17:19:37.081Z,8.57
2018-09-01T17:22:05.346Z,9.30
2018-09-01T17:24:33.557Z,9.20
2018-09-01T17:27:01.754Z,7.43
2018-09-01T17:29:30.040Z,8.37
2018-09-01T17:31:58.237Z,8.87
2018-09-01T17:34:26.471Z,8.33
2018-09-01T17:36:54.629Z,7.47
2018-09-01T17:39:22.840Z,8.40
2018-09-01T17:41:51.044Z,7.90
2018-09-01T17:44:19.289Z,6.70
2018-09-01T17:46:47.473Z,7.87
2018-09-01T17:49:15.698Z,6.43
2018-09-01T17:51:43.897Z,7.00
2018-09-01T17:54:12.139Z,6.87
2018-09-01T17:56:40.406Z,5.93
2018-09-01T17:59:08.674Z,5.97
2018-09-01T18:01:36.961Z,5.43
2018-09-01T18:04:05.157Z,6.30
2018-09-01T18:06:33.332Z,5.90
2018-09-01T18:09:01.581Z,6.90
2018-09-01T18:11:29.810Z,7.50
2018-09-01T18:13:58.125Z,5.00
2018-09-01T18:16:26.420Z,5.70
2018-09-01T18:18:54.713Z,5.37
2018-09-01T18:21:22.901Z,6.03
2018-09-01T18:23:51.469Z,6.63
2018-09-01T18:26:19.773Z,7.67
2018-09-01T18:28:47.937Z,7.20
2018-09-01T18:31:16.209Z,7.60
2018-09-01T18:33:45.332Z,7.50
2018-09-01T18:36:13.629Z,7.97
2018-09-01T18:38:41.901Z,8.03
2018-09-01T18:41:10.440Z,7.87
2018-09-01T18:43:38.536Z,7.17
2018-09-01T18:46:07.169Z,8.10
2018-09-01T18:48:35.343Z,8.90
2018-09-01T18:51:03.575Z,9.80
2018-09-01T18:53:31.894Z,9.27
2018-09-01T18:56:00.098Z,8.43
2018-09-01T18:58:28.302Z,10.57
2018-09-01T19:00:56.650Z,10.40
2018-09-01T19:03:24.949Z,10.83
2018-09-01T19:05:53.150Z,8.67
2018-09-01T19:08:22.769Z,9.97
2018-09-01T19:10:51.748Z,9.93
2018-09-01T19:13:19.921Z,11.13
2018-09-01T19:15:48.129Z,13.27
2018-09-01T19:18:17.062Z,12.03
2018-09-01T19:20:45.269Z,9.70
2018-09-01T19:23:13.436Z,10.07
2018-09-01T19:25:42.530Z,7.97
2018-09-01T19:28:10.713Z,9.30
2018-09-01T19:30:38.933Z,9.10
2018-09-01T19:33:07.210Z,9.73
2018-09-01T19:35:35.481Z,8.87
2018-09-01T19:38:03.650Z,9.30
2018-09-01T19:40:32.001Z,10.57
2018-09-01T19:43:00.156Z,10.93
2018-09-01T19:45:28.590Z,10.63
2018-09-01T19:47:56.593Z,11.07
2018-09-01T19:50:24.778Z,9.63
2018-09-01T19:52:53.002Z,11.50
2018-09-01T19:55:21.253Z,10.10
2018-09-01T19:57:49.477Z,11.83
2018-09-01T20:00:17.693Z,10.60
2018-09-01T20:02:46.041Z,11.20
2018-09-01T20:05:14.258Z,11.30
2018-09-01T20:07:42.480Z,11.80
2018-09-01T20:10:11.724Z,12.50
2018-09-01T20:12:39.968Z,11.07
2018-09-01T20:15:08.196Z,12.90
2018-09-01T20:17:36.425Z,13.67
2018-09-01T20:20:05.422Z,13.10
2018-09-01T20:22:33.649Z,11.03
2018-09-01T20:25:01.822Z,11.63
2018-09-01T20:27:30.037Z,13.93
2018-09-01T20:29:58.220Z,11.93
2018-09-01T20:32:26.912Z,11.90
2018-09-01T20:34:59.530Z,13.60
2018-09-01T20:37:27.740Z,12.47
2018-09-01T20:39:56.835Z,12.40
2018-09-01T20:42:25.037Z,12.77
2018-09-01T20:44:53.229Z,12.93
2018-09-01T20:47:21.445Z,12.20
2018-09-01T20:49:49.633Z,12.43
2018-09-01T20:52:17.845Z,14.13
2018-09-01T20:54:46.922Z,12.90
2018-09-01T20:57:15.125Z,12.77
2018-09-01T20:59:43.485Z,12.60
2018-09-01T21:02:11.714Z,15.50
2018-09-01T21:04:39.905Z,14.10
2018-09-01T21:07:08.185Z,15.13
2018-09-01T21:09:36.374Z,14.80
2018-09-01T21:12:04.685Z,13.70
2018-09-01T21:14:33.009Z,14.17
2018-09-01T21:17:01.413Z,12.73
2018-09-01T21:19:29.669Z,13.00
2018-09-01T21:21:57.848Z,14.40
2018-09-01T21:24:26.945Z,12.33
2018-09-01T21:26:56.026Z,13.10
2018-09-01T21:29:24.500Z,11.60
2018-09-01T21:31:53.669Z,12.10
2018-09-01T21:34:21.877Z,12.93
2018-09-01T21:36:50.103Z,14.50
2018-09-01T21:39:18.297Z,11.50
2018-09-01T21:41:46.680Z,13.43
2018-09-01T21:44:14.889Z,12.30
2018-09-01T21:46:50.422Z,13.43
2018-09-01T21:49:18.641Z,13.83
2018-09-01T21:51:46.822Z,13.93
2018-09-01T21:54:15.014Z,11.73
2018-09-01T21:56:43.189Z,13.07
2018-09-01T21:59:12.053Z,12.23
2018-09-01T22:01:40.359Z,13.03
2018-09-01T22:04:08.570Z,12.73
2018-09-01T22:06:36.756Z,11.93
2018-09-01T22:09:05.957Z,11.93
2018-09-01T22:11:34.137Z,13.30
2018-09-01T22:14:02.341Z,12.70
2018-09-01T22:16:30.520Z,12.73
2018-09-01T22:18:58.720Z,12.77
2018-09-01T22:21:26.910Z,11.83
2018-09-01T22:23:55.109Z,12.20
2018-09-01T22:26:23.315Z,12.83
2018-09-01T22:28:51.564Z,10.63
2018-09-01T22:31:19.755Z,12.13
2018-09-01T22:33:47.981Z,12.50
2018-09-01T22:36:16.152Z,12.23
2018-09-01T22:38:44.452Z,12.80
2018-09-01T22:41:13.286Z,12.27
2018-09-01T22:43:41.510Z,13.73
2018-09-01T22:46:09.760Z,11.77
2018-09-01T22:48:37.921Z,12.40
2018-09-01T22:51:06.155Z,12.40
2018-09-01T22:53:34.321Z,13.10
2018-09-01T22:56:02.552Z,14.53
2018-09-01T22:58:30.709Z,12.30
2018-09-01T23:00:58.944Z,13.43
2018-09-01T23:03:27.096Z,14.03
2018-09-01T23:05:55.301Z,13.27
2018-09-01T23:08:23.489Z,13.43
2018-09-01T23:10:51.800Z,12.10
2018-09-01T23:13:19.957Z,12.67
2018-09-01T23:15:48.181Z,12.13
2018-09-01T23:18:16.349Z,12.47
2018-09-01T23:20:44.605Z,10.70
2018-09-01T23:23:12.765Z,10.80
2018-09-01T23:25:40.977Z,10.63
2018-09-01T23:28:09.141Z,11.27
2018-09-01T23:30:37.452Z,10.87
2018-09-01T23:33:05.693Z,12.23
2018-09-01T23:35:33.905Z,10.60
2018-09-01T23:38:02.072Z,10.50
2018-09-01T23:40:30.273Z,10.63
2018-09-01T23:42:58.445Z,10.10
2018-09-01T23:45:26.645Z,9.47
2018-09-01T23:47:54.957Z,10.07
2018-09-01T23:50:23.183Z,10.93
2018-09-01T23:52:51.361Z,11.07
2018-09-01T23:55:19.676Z,10.77
2018-09-01T23:57:47.880Z,11.07
